createdAt,value
2019-02-24T00:00:40.488Z,21.67
2019-02-24T00:03:10.938Z,21.33
2019-02-24T00:05:41.405Z,21.87
2019-02-24T00:08:11.755Z,21.50
2019-02-24T00:10:42.183Z,20.00
2019-02-24T00:13:12.854Z,23.30
2019-02-24T00:15:43.248Z,23.77
2019-02-24T00:18:13.643Z,23.80
2019-02-24T00:20:44.031Z,21.53
2019-02-24T00:23:14.588Z,21.30
2019-02-24T00:25:45.001Z,21.67
2019-02-24T00:28:15.527Z,21.13
2019-02-24T00:30:47.792Z,21.90
2019-02-24T00:33:18.144Z,22.47
2019-02-24T00:35:48.583Z,21.40
2019-02-24T00:38:20.757Z,22.53
2019-02-24T00:40:52.386Z,23.93
2019-02-24T00:43:22.962Z,21.40
2019-02-24T00:45:53.395Z,23.60
2019-02-24T00:48:23.779Z,22.63
2019-02-24T00:50:54.147Z,22.13
2019-02-24T00:53:24.511Z,20.27
2019-02-24T00:55:54.936Z,22.53
2019-02-24T00:58:25.604Z,19.93
2019-02-24T01:00:55.986Z,22.27
2019-02-24T01:03:26.458Z,21.43
2019-02-24T01:05:56.810Z,20.07
2019-02-24T01:08:29.116Z,20.43
2019-02-24T01:10:59.860Z,19.47
2019-02-24T01:13:30.670Z,21.23
2019-02-24T01:16:00.976Z,19.47
2019-02-24T01:18:31.371Z,19.50
2019-02-24T01:21:01.791Z,18.47
2019-02-24T01:23:32.350Z,20.23
2019-02-24T01:26:02.781Z,20.00
2019-02-24T01:28:33.144Z,19.47
2019-02-24T01:31:03.564Z,19.93
2019-02-24T01:33:33.979Z,22.70
2019-02-24T01:36:04.350Z,21.17
2019-02-24T01:38:34.783Z,19.50
2019-02-24T01:41:05.166Z,19.47
2019-02-24T01:43:35.634Z,18.47
2019-02-24T01:46:06.066Z,19.20
2019-02-24T01:48:36.457Z,18.63
2019-02-24T01:51:06.846Z,18.17
2019-02-24T01:53:37.344Z,20.90
2019-02-24T01:56:08.033Z,18.97
2019-02-24T01:58:38.780Z,20.57
2019-02-24T02:01:09.202Z,21.23
2019-02-24T02:03:39.806Z,24.40
2019-02-24T02:06:10.237Z,23.17
2019-02-24T02:08:41.805Z,18.57
2019-02-24T02:11:12.162Z,20.57
2019-02-24T02:13:42.578Z,20.20
2019-02-24T02:16:12.973Z,19.30
2019-02-24T02:18:43.434Z,20.33
2019-02-24T02:21:13.826Z,20.33
2019-02-24T02:23:45.235Z,22.77
2019-02-24T02:26:15.656Z,22.43
2019-02-24T02:28:46.117Z,20.13
2019-02-24T02:31:16.547Z,21.23
2019-02-24T02:33:47.257Z,23.60
2019-02-24T02:36:17.720Z,23.20
2019-02-24T02:38:48.123Z,22.80
2019-02-24T02:41:18.629Z,24.33
2019-02-24T02:43:49.058Z,23.43
2019-02-24T02:46:19.444Z,24.03
2019-02-24T02:48:49.846Z,24.60
2019-02-24T02:51:20.448Z,24.00
2019-02-24T02:53:51.290Z,25.13
2019-02-24T02:56:21.879Z,26.67
2019-02-24T02:58:54.607Z,26.40
2019-02-24T03:01:24.342Z,24.90
2019-02-24T03:03:54.718Z,25.67
2019-02-24T03:06:42.260Z,31.93
2019-02-24T03:09:12.834Z,26.23
2019-02-24T03:11:43.453Z,26.23
2019-02-24T03:14:13.842Z,27.73
2019-02-24T03:16:44.259Z,29.50
2019-02-24T03:19:14.752Z,28.43
2019-02-24T03:21:45.293Z,27.93
2019-02-24T03:24:15.728Z,27.13
2019-02-24T03:26:46.212Z,28.23
2019-02-24T03:29:16.735Z,29.00
2019-02-24T03:31:47.069Z,25.13
2019-02-24T03:34:17.469Z,25.67
2019-02-24T03:36:47.821Z,24.47
2019-02-24T03:39:18.232Z,24.47
2019-02-24T03:41:48.578Z,25.97
2019-02-24T03:44:19.064Z,27.70
2019-02-24T03:46:49.442Z,26.57
2019-02-24T03:49:20.154Z,25.63
2019-02-24T03:51:50.548Z,25.47
2019-02-24T03:54:20.999Z,29.00
2019-02-24T03:56:51.728Z,25.37
2019-02-24T03:59:22.428Z,27.10
2019-02-24T04:01:52.758Z,26.97
2019-02-24T04:04:23.322Z,26.10
2019-02-24T04:06:53.715Z,27.10
2019-02-24T04:09:24.063Z,25.50
2019-02-24T04:11:54.478Z,24.03
2019-02-24T04:14:25.089Z,25.97
2019-02-24T04:16:55.744Z,27.50
2019-02-24T04:19:26.176Z,25.40
2019-02-24T04:21:56.584Z,27.20
2019-02-24T04:24:27.181Z,24.80
2019-02-24T04:26:58.763Z,26.37
2019-02-24T04:29:29.112Z,26.20
2019-02-24T04:31:59.572Z,26.67
2019-02-24T04:34:29.966Z,26.87
2019-02-24T04:37:00.380Z,26.43
2019-02-24T04:39:30.764Z,29.43
2019-02-24T04:42:01.188Z,26.50
2019-02-24T04:44:31.654Z,24.43
2019-02-24T04:47:02.125Z,26.43
2019-02-24T04:49:32.529Z,28.97
2019-02-24T04:52:02.882Z,26.77
2019-02-24T04:54:33.370Z,26.87
2019-02-24T04:57:03.822Z,24.23
2019-02-24T04:59:35.244Z,26.50
2019-02-24T05:02:05.866Z,26.40
2019-02-24T05:04:37.495Z,28.90
2019-02-24T05:07:07.896Z,26.90
2019-02-24T05:09:38.325Z,26.67
2019-02-24T05:12:08.800Z,24.67
2019-02-24T05:14:39.144Z,25.60
2019-02-24T05:17:09.577Z,27.97
2019-02-24T05:19:39.914Z,24.50
2019-02-24T05:22:10.444Z,25.63
2019-02-24T05:24:41.024Z,28.17
2019-02-24T05:27:11.944Z,26.10
2019-02-24T05:29:45.855Z,25.70
2019-02-24T05:32:14.372Z,25.90
2019-02-24T05:34:45.110Z,24.93
2019-02-24T05:37:15.610Z,26.20
2019-02-24T05:39:47.760Z,27.20
2019-02-24T05:42:18.304Z,24.57
2019-02-24T05:44:49.581Z,25.83
2019-02-24T05:47:20.023Z,25.37
2019-02-24T05:49:50.945Z,26.47
2019-02-24T05:52:21.265Z,25.87
2019-02-24T05:54:51.975Z,25.27
2019-02-24T05:57:23.093Z,25.73
2019-02-24T05:59:55.467Z,27.83
2019-02-24T06:02:27.257Z,26.40
2019-02-24T06:04:57.643Z,27.27
2019-02-24T06:07:28.025Z,27.97
2019-02-24T06:09:58.640Z,26.93
2019-02-24T06:12:28.980Z,26.27
2019-02-24T06:14:59.419Z,26.63
2019-02-24T06:17:29.789Z,26.90
2019-02-24T06:20:00.305Z,26.97
2019-02-24T06:22:31.549Z,26.27
2019-02-24T06:25:02.003Z,27.50
2019-02-24T06:27:32.792Z,25.47
2019-02-24T06:30:05.273Z,26.43
2019-02-24T06:32:35.426Z,25.80
2019-02-24T06:35:07.676Z,24.63
2019-02-24T06:37:38.170Z,26.63
2019-02-24T06:40:09.148Z,25.60
2019-02-24T06:42:39.631Z,25.57
2019-02-24T06:45:11.243Z,25.43
2019-02-24T06:47:41.616Z,27.63
2019-02-24T06:50:12.005Z,26.43
2019-02-24T06:52:42.353Z,24.57
2019-02-24T06:55:13.559Z,26.57
2019-02-24T06:57:43.940Z,26.53
2019-02-24T07:00:14.526Z,26.20
2019-02-24T07:02:45.026Z,24.10
2019-02-24T07:05:15.783Z,28.10
2019-02-24T07:07:46.296Z,27.97
2019-02-24T07:10:16.789Z,27.90
2019-02-24T07:12:47.204Z,27.13
2019-02-24T07:15:17.604Z,27.30
2019-02-24T07:17:47.971Z,27.20
2019-02-24T07:20:18.399Z,27.23
2019-02-24T07:22:48.807Z,24.73
2019-02-24T07:25:19.409Z,27.20
2019-02-24T07:27:49.910Z,26.70
2019-02-24T07:30:23.630Z,24.57
2019-02-24T07:32:52.777Z,25.87
2019-02-24T07:35:23.576Z,26.07
2019-02-24T07:37:53.960Z,27.90
2019-02-24T07:40:24.334Z,25.33
2019-02-24T07:42:54.708Z,25.13
2019-02-24T07:45:25.070Z,27.07
2019-02-24T07:47:55.515Z,25.73
2019-02-24T07:50:25.968Z,25.13
2019-02-24T07:52:56.367Z,24.57
2019-02-24T07:55:27.200Z,24.40
2019-02-24T07:57:57.744Z,23.97
2019-02-24T08:00:32.337Z,24.33
2019-02-24T08:03:00.075Z,23.73
2019-02-24T08:05:30.399Z,24.40
2019-02-24T08:08:02.504Z,22.93
2019-02-24T08:10:33.031Z,21.90
2019-02-24T08:13:03.573Z,22.10
2019-02-24T08:15:33.950Z,20.83
2019-02-24T08:18:04.351Z,21.07
2019-02-24T08:20:34.797Z,21.37
2019-02-24T08:23:05.171Z,18.90
2019-02-24T08:25:35.556Z,19.60
2019-02-24T08:28:06.152Z,20.13
2019-02-24T08:30:41.692Z,18.50
2019-02-24T08:33:08.571Z,18.93
2019-02-24T08:35:39.237Z,20.90
2019-02-24T08:38:09.615Z,22.60
2019-02-24T08:40:41.327Z,19.63
2019-02-24T08:43:11.691Z,18.23
2019-02-24T08:45:42.068Z,19.23
2019-02-24T08:48:12.850Z,17.87
2019-02-24T08:50:44.303Z,18.10
2019-02-24T08:53:14.740Z,18.43
2019-02-24T08:55:45.094Z,18.67
2019-02-24T08:58:15.803Z,18.10
2019-02-24T09:00:51.009Z,16.07
2019-02-24T09:03:18.447Z,18.87
2019-02-24T09:05:48.822Z,16.30
2019-02-24T09:08:19.256Z,16.93
2019-02-24T09:10:49.848Z,16.93
2019-02-24T09:13:20.464Z,19.00
2019-02-24T09:15:50.893Z,16.87
2019-02-24T09:18:21.382Z,16.67
2019-02-24T09:20:51.739Z,17.17
2019-02-24T09:23:22.217Z,16.60
2019-02-24T09:25:52.690Z,17.07
2019-02-24T09:28:23.121Z,20.30
2019-02-24T09:31:00.399Z,18.27
2019-02-24T09:33:26.174Z,20.33
2019-02-24T09:35:57.086Z,16.23
2019-02-24T09:38:27.516Z,16.83
2019-02-24T09:40:57.899Z,16.93
2019-02-24T09:43:28.586Z,17.90
2019-02-24T09:45:58.913Z,17.07
2019-02-24T09:48:29.613Z,17.17
2019-02-24T09:51:00.035Z,16.60
2019-02-24T09:53:30.463Z,18.57
2019-02-24T09:56:00.781Z,18.53
2019-02-24T09:58:31.811Z,16.73
2019-02-24T10:01:10.366Z,15.00
2019-02-24T10:03:34.454Z,18.80
2019-02-24T10:06:05.332Z,18.30
2019-02-24T10:08:37.302Z,17.33
2019-02-24T10:11:07.719Z,17.33
2019-02-24T10:13:39.460Z,16.83
2019-02-24T10:16:09.853Z,17.23
2019-02-24T10:18:40.511Z,18.77
2019-02-24T10:21:11.047Z,19.33
2019-02-24T10:23:41.448Z,16.77
2019-02-24T10:26:11.803Z,18.20
2019-02-24T10:28:42.399Z,16.47
2019-02-24T10:31:19.587Z,17.87
2019-02-24T10:33:45.135Z,17.33
2019-02-24T10:36:15.843Z,18.87
2019-02-24T10:38:46.986Z,18.93
2019-02-24T10:41:17.382Z,19.03
2019-02-24T10:43:47.771Z,17.87
2019-02-24T10:46:18.598Z,16.77
2019-02-24T10:48:49.121Z,20.50
2019-02-24T10:51:19.515Z,23.03
2019-02-24T10:53:49.940Z,18.30
2019-02-24T10:56:20.348Z,18.30
2019-02-24T10:58:50.999Z,19.00
2019-02-24T11:01:29.218Z,19.20
2019-02-24T11:03:53.511Z,17.87
2019-02-24T11:06:23.881Z,18.23
2019-02-24T11:08:54.309Z,17.53
2019-02-24T11:11:24.669Z,18.73
2019-02-24T11:13:55.031Z,18.27
2019-02-24T11:16:25.412Z,17.53
2019-02-24T11:18:56.855Z,18.77
2019-02-24T11:21:27.232Z,18.90
2019-02-24T11:23:57.904Z,17.13
2019-02-24T11:26:28.313Z,18.37
2019-02-24T11:28:58.723Z,18.57
2019-02-24T11:31:37.973Z,20.07
2019-02-24T11:34:01.234Z,19.57
2019-02-24T11:36:31.588Z,20.30
2019-02-24T11:39:01.984Z,19.80
2019-02-24T11:41:34.004Z,18.73
2019-02-24T11:44:04.455Z,21.50
2019-02-24T11:46:35.381Z,19.27
2019-02-24T11:49:06.033Z,20.93
2019-02-24T11:51:36.433Z,20.50
2019-02-24T11:54:07.131Z,19.17
2019-02-24T11:56:38.839Z,19.10
2019-02-24T11:59:09.326Z,20.80
2019-02-24T12:01:47.290Z,18.90
2019-02-24T12:04:11.916Z,21.40
2019-02-24T12:06:42.299Z,20.80
2019-02-24T12:09:12.664Z,18.90
2019-02-24T12:11:43.067Z,21.43
2019-02-24T12:14:13.465Z,19.23
2019-02-24T12:16:44.291Z,19.03
2019-02-24T12:19:15.244Z,19.60
2019-02-24T12:21:45.743Z,19.17
2019-02-24T12:24:16.069Z,21.70
2019-02-24T12:26:46.459Z,20.00
2019-02-24T12:29:16.925Z,21.90
2019-02-24T12:31:56.185Z,22.33
2019-02-24T12:34:20.246Z,19.90
2019-02-24T12:36:50.639Z,21.63
2019-02-24T12:39:21.040Z,19.83
2019-02-24T12:41:51.501Z,22.07
2019-02-24T12:44:21.955Z,19.70
2019-02-24T12:46:52.309Z,21.30
2019-02-24T12:49:22.696Z,22.03
2019-02-24T12:51:53.019Z,22.17
2019-02-24T12:54:23.464Z,20.43
2019-02-24T12:56:53.889Z,21.93
2019-02-24T12:59:25.019Z,20.40
2019-02-24T13:02:05.297Z,21.73
2019-02-24T13:04:28.963Z,20.87
2019-02-24T13:07:01.982Z,21.60
2019-02-24T13:09:33.858Z,21.57
2019-02-24T13:12:04.267Z,21.67
2019-02-24T13:14:40.423Z,20.90
2019-02-24T13:17:16.167Z,21.80
2019-02-24T13:19:48.217Z,22.23
2019-02-24T13:22:18.692Z,23.30
2019-02-24T13:24:50.243Z,24.93
2019-02-24T13:27:20.648Z,25.80
2019-02-24T13:29:52.577Z,24.57
2019-02-24T13:32:23.157Z,21.90
2019-02-24T13:34:53.529Z,23.47
2019-02-24T13:37:23.929Z,26.37
2019-02-24T13:39:54.292Z,24.60
2019-02-24T13:42:24.659Z,24.50
2019-02-24T13:44:54.983Z,23.23
2019-02-24T13:47:25.429Z,23.17
2019-02-24T13:49:55.809Z,22.80
2019-02-24T13:52:26.227Z,23.90
2019-02-24T13:54:56.634Z,24.17
2019-02-24T13:57:27.041Z,24.33
2019-02-24T13:59:57.397Z,27.67
2019-02-24T14:02:27.796Z,24.47
2019-02-24T14:04:58.178Z,23.10
2019-02-24T14:07:28.607Z,23.17
2019-02-24T14:09:58.977Z,23.87
2019-02-24T14:12:29.357Z,28.83
2019-02-24T14:14:59.708Z,24.53
2019-02-24T14:17:30.485Z,25.30
2019-02-24T14:20:01.094Z,23.50
2019-02-24T14:22:31.899Z,25.13
2019-02-24T14:25:02.946Z,24.47
2019-02-24T14:27:33.355Z,22.30
2019-02-24T14:30:04.099Z,23.67
2019-02-24T14:32:34.431Z,29.77
2019-02-24T14:35:06.155Z,23.07
2019-02-24T14:37:36.511Z,19.43
2019-02-24T14:40:07.507Z,20.27
2019-02-24T14:42:37.891Z,21.03
2019-02-24T14:45:11.557Z,21.23
2019-02-24T14:47:41.934Z,20.43
2019-02-24T14:50:12.918Z,17.80
2019-02-24T14:52:43.378Z,20.70
2019-02-24T14:55:14.131Z,19.80
2019-02-24T14:57:44.482Z,21.80
2019-02-24T15:00:15.429Z,23.47
2019-02-24T15:02:46.045Z,19.43
2019-02-24T15:05:16.951Z,19.77
2019-02-24T15:07:47.727Z,18.03
2019-02-24T15:10:18.041Z,21.33
2019-02-24T15:12:48.483Z,20.67
2019-02-24T15:15:19.775Z,20.00
2019-02-24T15:17:50.133Z,20.43
2019-02-24T15:20:20.803Z,20.03
2019-02-24T15:22:51.662Z,19.70
2019-02-24T15:25:22.067Z,19.63
2019-02-24T15:27:52.428Z,21.87
2019-02-24T15:30:28.641Z,21.73
2019-02-24T15:32:59.099Z,20.70
2019-02-24T15:35:29.780Z,22.70
2019-02-24T15:38:00.685Z,24.13
2019-02-24T15:40:31.063Z,26.03
2019-02-24T15:43:01.686Z,25.47
2019-02-24T15:45:32.125Z,24.47
2019-02-24T15:48:02.781Z,23.87
2019-02-24T15:50:34.267Z,24.50
2019-02-24T15:53:04.709Z,26.00
2019-02-24T15:55:35.495Z,23.93
2019-02-24T15:58:06.459Z,24.47
2019-02-24T16:00:37.097Z,26.97
2019-02-24T16:03:07.745Z,26.90
2019-02-24T16:05:38.172Z,26.77
2019-02-24T16:08:08.542Z,27.83
2019-02-24T16:10:41.364Z,29.33
2019-02-24T16:13:16.969Z,32.40
2019-02-24T16:15:44.219Z,31.83
2019-02-24T16:18:14.858Z,33.03
2019-02-24T16:20:45.371Z,36.57
2019-02-24T16:23:17.312Z,35.00
2019-02-24T16:25:47.980Z,33.73
2019-02-24T16:28:18.527Z,33.73
2019-02-24T16:30:48.838Z,35.07
2019-02-24T16:33:19.555Z,33.57
2019-02-24T16:35:50.118Z,35.03
2019-02-24T16:38:20.523Z,34.57
2019-02-24T16:40:50.881Z,34.37
2019-02-24T16:43:21.298Z,32.70
2019-02-24T16:45:51.770Z,34.07
2019-02-24T16:48:22.401Z,31.53
2019-02-24T16:50:52.802Z,34.10
2019-02-24T16:53:24.552Z,32.57
2019-02-24T16:55:54.909Z,32.33
2019-02-24T16:58:25.685Z,33.17
2019-02-24T17:00:56.061Z,32.57
2019-02-24T17:03:26.474Z,33.97
2019-02-24T17:05:57.447Z,33.63
2019-02-24T17:08:28.252Z,35.70
2019-02-24T17:11:07.168Z,33.40
2019-02-24T17:13:30.791Z,35.43
2019-02-24T17:16:01.177Z,35.80
2019-02-24T17:18:31.536Z,36.03
2019-02-24T17:21:01.973Z,32.80
2019-02-24T17:23:32.336Z,34.67
2019-02-24T17:26:02.734Z,35.90
2019-02-24T17:28:33.118Z,35.63
2019-02-24T17:31:03.539Z,35.83
2019-02-24T17:33:33.924Z,34.87
2019-02-24T17:36:04.328Z,35.67
2019-02-24T17:38:34.838Z,41.37
2019-02-24T17:41:05.254Z,37.53
2019-02-24T17:43:35.712Z,37.60
2019-02-24T17:46:06.148Z,37.63
2019-02-24T17:48:36.481Z,38.00
2019-02-24T17:51:07.200Z,38.97
2019-02-24T17:53:37.852Z,37.10
2019-02-24T17:56:08.412Z,37.07
2019-02-24T17:58:38.859Z,35.77
2019-02-24T18:01:09.277Z,37.40
2019-02-24T18:03:39.966Z,38.17
2019-02-24T18:06:10.574Z,39.40
2019-02-24T18:08:41.748Z,39.70
2019-02-24T18:11:12.309Z,38.90
2019-02-24T18:13:42.970Z,40.73
2019-02-24T18:16:13.306Z,42.70
2019-02-24T18:18:43.757Z,42.83
2019-02-24T18:21:14.166Z,43.10
2019-02-24T18:23:44.544Z,40.90
2019-02-24T18:26:15.119Z,41.97
2019-02-24T18:28:45.461Z,44.00
2019-02-24T18:31:15.828Z,46.43
2019-02-24T18:33:48.560Z,37.37
2019-02-24T18:36:19.372Z,41.80
2019-02-24T18:38:49.824Z,40.70
2019-02-24T18:41:20.513Z,46.37
2019-02-24T18:43:50.958Z,47.43
2019-02-24T18:46:21.738Z,45.80
2019-02-24T18:48:52.107Z,44.70
2019-02-24T18:51:22.752Z,47.07
2019-02-24T18:53:53.078Z,43.27
2019-02-24T18:56:23.472Z,48.20
2019-02-24T18:58:54.242Z,47.50
2019-02-24T19:01:25.346Z,47.63
2019-02-24T19:03:57.999Z,50.13
2019-02-24T19:06:28.919Z,51.23
2019-02-24T19:08:59.412Z,51.37
2019-02-24T19:11:29.792Z,47.47
2019-02-24T19:14:00.185Z,46.37
2019-02-24T19:16:31.278Z,47.90
2019-02-24T19:19:01.721Z,49.23
2019-02-24T19:21:32.141Z,47.73
2019-02-24T19:24:02.566Z,45.43
2019-02-24T19:26:32.900Z,48.43
2019-02-24T19:29:03.318Z,49.70
2019-02-24T19:31:33.708Z,50.57
2019-02-24T19:34:06.708Z,60.47
2019-02-24T19:36:37.581Z,56.73
2019-02-24T19:39:09.748Z,48.43
2019-02-24T19:41:40.252Z,49.17
2019-02-24T19:44:10.658Z,50.83
2019-02-24T19:46:42.298Z,48.63
2019-02-24T19:49:12.854Z,47.87
2019-02-24T19:51:43.250Z,47.27
2019-02-24T19:54:13.675Z,48.13
2019-02-24T19:56:44.139Z,45.73
2019-02-24T19:59:14.555Z,45.60
2019-02-24T20:01:45.082Z,44.40
2019-02-24T20:04:16.416Z,44.23
2019-02-24T20:06:47.118Z,43.57
2019-02-24T20:09:17.876Z,43.50
2019-02-24T20:11:48.294Z,41.93
2019-02-24T20:14:18.834Z,43.40
2019-02-24T20:16:49.265Z,45.83
2019-02-24T20:19:19.716Z,44.13
2019-02-24T20:21:50.103Z,44.33
2019-02-24T20:24:20.636Z,44.80
2019-02-24T20:26:51.071Z,44.93
2019-02-24T20:29:21.472Z,49.37
2019-02-24T20:31:53.144Z,45.43
2019-02-24T20:34:25.812Z,44.80
2019-02-24T20:36:56.968Z,47.40
2019-02-24T20:39:27.353Z,46.93
2019-02-24T20:41:57.802Z,46.90
2019-02-24T20:44:28.210Z,51.10
2019-02-24T20:46:58.719Z,45.13
2019-02-24T20:49:29.490Z,44.80
2019-02-24T20:51:59.946Z,44.97
2019-02-24T20:54:30.302Z,41.37
2019-02-24T20:57:01.848Z,45.80
2019-02-24T20:59:32.410Z,43.90
2019-02-24T21:02:02.906Z,41.67
2019-02-24T21:04:33.271Z,46.43
2019-02-24T21:07:03.937Z,39.70
2019-02-24T21:09:34.355Z,44.03
2019-02-24T21:12:04.862Z,39.67
2019-02-24T21:14:35.294Z,40.60
2019-02-24T21:17:05.710Z,39.00
2019-02-24T21:19:36.419Z,41.00
2019-02-24T21:22:07.205Z,40.17
2019-02-24T21:24:37.720Z,41.47
2019-02-24T21:27:08.400Z,36.80
2019-02-24T21:29:39.104Z,39.43
2019-02-24T21:32:09.844Z,40.17
2019-02-24T21:34:40.235Z,36.67
2019-02-24T21:37:11.372Z,39.13
2019-02-24T21:39:41.900Z,39.63
2019-02-24T21:42:12.411Z,39.10
2019-02-24T21:44:42.742Z,39.33
2019-02-24T21:47:13.390Z,35.13
2019-02-24T21:49:44.272Z,37.50
2019-02-24T21:52:14.632Z,38.83
2019-02-24T21:54:46.766Z,39.47
2019-02-24T21:57:17.249Z,37.23
2019-02-24T21:59:47.730Z,39.53
2019-02-24T22:02:18.234Z,39.87
2019-02-24T22:04:48.655Z,37.57
2019-02-24T22:07:20.261Z,37.90
2019-02-24T22:09:50.908Z,37.80
2019-02-24T22:12:21.659Z,39.23
2019-02-24T22:14:52.096Z,36.67
2019-02-24T22:17:22.537Z,38.60
2019-02-24T22:19:53.215Z,39.73
2019-02-24T22:22:23.605Z,38.97
2019-02-24T22:24:54.335Z,40.77
2019-02-24T22:27:24.835Z,38.13
2019-02-24T22:29:55.423Z,40.27
2019-02-24T22:32:25.860Z,39.80
2019-02-24T22:34:56.495Z,40.73
2019-02-24T22:37:27.309Z,39.00
2019-02-24T22:39:57.750Z,37.73
2019-02-24T22:42:28.115Z,35.97
2019-02-24T22:44:58.598Z,40.57
2019-02-24T22:47:29.257Z,32.37
2019-02-24T22:50:00.296Z,39.33
2019-02-24T22:52:30.645Z,38.07
2019-02-24T22:55:01.057Z,38.60
2019-02-24T22:57:31.442Z,36.80
2019-02-24T23:00:02.908Z,40.30
2019-02-24T23:02:35.808Z,34.47
2019-02-24T23:05:07.521Z,38.70
2019-02-24T23:07:39.518Z,37.93
2019-02-24T23:10:10.624Z,38.17
2019-02-24T23:12:41.439Z,37.13
2019-02-24T23:15:13.557Z,36.53
2019-02-24T23:17:45.598Z,36.17
2019-02-24T23:20:15.997Z,36.57
2019-02-24T23:22:46.376Z,38.37
2019-02-24T23:25:16.842Z,38.50
2019-02-24T23:27:47.233Z,35.03
2019-02-24T23:30:17.738Z,36.37
2019-02-24T23:32:48.207Z,36.30
2019-02-24T23:35:18.627Z,36.83
2019-02-24T23:37:49.117Z,33.83
2019-02-24T23:40:19.537Z,35.80
2019-02-24T23:42:50.323Z,38.50
2019-02-24T23:45:21.425Z,37.27
2019-02-24T23:47:51.707Z,36.90
2019-02-24T23:50:22.281Z,34.73
2019-02-24T23:52:52.645Z,35.20
2019-02-24T23:55:23.067Z,35.53
2019-02-24T23:57:53.519Z,37.00
